Time;durP1;ratioP1;P1;durP2;ratioP2;P2;SDS_P1;SDS_P2;PMS_P1;PMS_P2;Temp;Humidity;BMP_temperature;BMP_pressure;BME280_temperature;BME280_humidity;BME280_pressure;Samples;Min_cycle;Max_cycle;Signal;HPM_P1;HPM_P2
2023/05/17 00:01:24;;;;;;;0.00;0.00;;;17.10;86.10;;;;;;5041395;28;20029;-73
2023/05/17 00:03:53;;;;;;;0.68;0.20;;;17.10;86.20;;;;;;5040675;28;20065;-74
2023/05/17 00:06:19;;;;;;;0.00;0.00;;;17.00;86.70;;;;;;5035284;28;20030;-73
2023/05/17 00:08:45;;;;;;;0.17;0.00;;;17.10;85.30;;;;;;5036191;28;20427;-73
2023/05/17 00:11:10;;;;;;;1.65;0.00;;;17.10;85.60;;;;;;5039857;28;20040;-74
2023/05/17 00:13:37;;;;;;;1.13;0.10;;;17.10;85.80;;;;;;5036435;28;20022;-73
2023/05/17 00:16:03;;;;;;;0.00;0.00;;;17.00;85.60;;;;;;5036009;28;20045;-74
2023/05/17 00:18:28;;;;;;;2.90;0.10;;;17.00;85.30;;;;;;5038285;28;20029;-74
2023/05/17 00:20:54;;;;;;;0.00;0.00;;;17.10;85.50;;;;;;5034671;28;20060;-73
2023/05/17 00:23:20;;;;;;;8.65;0.30;;;17.00;85.90;;;;;;5035335;28;20376;-74
2023/05/17 00:25:45;;;;;;;0.35;0.03;;;16.90;85.30;;;;;;5036555;28;20032;-74
2023/05/17 00:28:11;;;;;;;0.00;0.00;;;17.10;84.90;;;;;;5031530;28;20030;-73
2023/05/17 00:30:37;;;;;;;0.20;0.00;;;17.10;84.90;;;;;;5033828;28;20033;-73
2023/05/17 00:33:03;;;;;;;1.50;0.10;;;17.20;84.50;;;;;;5038249;28;20029;-74
2023/05/17 00:35:29;;;;;;;0.00;0.00;;;17.10;84.50;;;;;;5034596;28;20068;-73
2023/05/17 00:37:55;;;;;;;0.25;0.00;;;17.10;84.90;;;;;;5037187;28;20036;-74
2023/05/17 00:40:21;;;;;;;0.20;0.00;;;17.10;84.90;;;;;;5032879;28;20462;-73
2023/05/17 00:42:47;;;;;;;0.00;0.00;;;16.90;85.80;;;;;;5042619;28;20021;-73
2023/05/17 00:45:12;;;;;;;0.00;0.00;;;16.90;84.70;;;;;;5035756;28;20036;-76
2023/05/17 00:47:38;;;;;;;0.25;0.00;;;17.00;84.60;;;;;;5043622;28;20032;-74
2023/05/17 00:50:05;;;;;;;0.00;0.00;;;16.90;85.10;;;;;;5035425;28;20491;-74
2023/05/17 00:52:31;;;;;;;0.10;0.10;;;16.90;85.60;;;;;;5037514;28;20029;-73
2023/05/17 00:54:57;;;;;;;0.00;0.00;;;16.90;85.10;;;;;;5040035;28;20044;-74
2023/05/17 00:57:23;;;;;;;1.05;0.00;;;16.90;85.40;;;;;;5039731;28;20083;-74
2023/05/17 00:59:50;;;;;;;1.65;0.03;;;16.80;85.50;;;;;;5036126;28;20025;-73
2023/05/17 01:02:16;;;;;;;0.00;0.00;;;16.80;85.00;;;;;;5037443;28;20580;-74
2023/05/17 01:04:43;;;;;;;0.00;0.00;;;16.80;84.50;;;;;;5040801;28;20095;-74
2023/05/17 01:07:09;;;;;;;0.00;0.00;;;16.90;84.80;;;;;;5044490;28;20436;-73
2023/05/17 01:09:35;;;;;;;0.10;0.00;;;16.90;85.10;;;;;;5042911;28;20036;-76
2023/05/17 01:12:27;;;;;;;0.35;0.08;;;16.90;85.10;;;;;;5037704;28;20422;-74
2023/05/17 01:15:05;;;;;;;0.00;0.00;;;16.80;84.50;;;;;;5039752;28;20128;-74
2023/05/17 01:17:52;;;;;;;0.00;0.00;;;16.80;84.80;;;;;;5036907;28;20041;-74
2023/05/17 01:20:40;;;;;;;0.45;0.08;;;16.80;84.60;;;;;;5034993;28;20162;-74
2023/05/17 01:23:12;;;;;;;0.22;0.00;;;16.80;84.60;;;;;;5034829;28;20033;-73
2023/05/17 01:25:46;;;;;;;0.28;0.00;;;16.80;84.50;;;;;;5030785;28;20029;-74
2023/05/17 01:28:13;;;;;;;;;;;16.80;83.80;;;;;;5038824;28;20037;-74
2023/05/17 01:30:41;;;;;;;0.15;0.00;;;16.80;84.60;;;;;;5038761;28;19936;-73
2023/05/17 01:33:08;;;;;;;0.00;0.00;;;16.70;84.90;;;;;;5035537;28;20037;-73
2023/05/17 01:35:34;;;;;;;0.38;0.00;;;16.70;84.30;;;;;;5033648;28;20123;-74
2023/05/17 01:37:59;;;;;;;0.03;0.00;;;16.80;84.40;;;;;;5037417;28;20057;-74
2023/05/17 01:40:25;;;;;;;0.00;0.00;;;16.70;84.60;;;;;;5029028;28;20399;-73
2023/05/17 01:43:00;;;;;;;0.03;0.00;;;16.80;83.70;;;;;;5033136;28;20463;-74
2023/05/17 01:45:32;;;;;;;0.00;0.00;;;16.90;83.90;;;;;;5031166;28;20048;-74
2023/05/17 01:48:14;;;;;;;1.67;0.00;;;16.80;84.80;;;;;;5038527;28;20037;-74
2023/05/17 01:50:41;;;;;;;0.20;0.05;;;16.60;85.70;;;;;;5038027;28;20033;-74
2023/05/17 01:53:15;;;;;;;0.00;0.00;;;16.60;85.60;;;;;;5039896;28;20035;-74
2023/05/17 01:55:50;;;;;;;0.43;0.00;;;16.60;84.90;;;;;;5043847;28;20099;-74
2023/05/17 01:58:20;;;;;;;0.00;0.00;;;16.60;84.40;;;;;;5042742;28;20086;-74
2023/05/17 02:00:47;;;;;;;0.10;0.00;;;16.60;84.60;;;;;;5042710;28;20065;-73
2023/05/17 02:03:17;;;;;;;0.00;0.00;;;16.60;84.60;;;;;;5040349;28;20495;-74
2023/05/17 02:05:42;;;;;;;0.17;0.00;;;16.70;84.20;;;;;;5042400;28;20044;-74
2023/05/17 02:08:08;;;;;;;0.00;0.00;;;16.50;85.20;;;;;;5043496;28;20028;-74
2023/05/17 02:10:34;;;;;;;0.10;0.00;;;16.60;84.80;;;;;;5041138;28;20471;-73
2023/05/17 02:12:59;;;;;;;0.20;0.10;;;16.60;84.30;;;;;;5045116;28;20029;-74
2023/05/17 02:15:25;;;;;;;0.00;0.00;;;16.50;84.50;;;;;;5038797;28;20163;-74
2023/05/17 02:17:50;;;;;;;0.00;0.00;;;16.70;84.50;;;;;;5038895;28;20065;-74
2023/05/17 02:20:16;;;;;;;0.30;0.10;;;16.60;84.50;;;;;;5047060;28;20422;-74
2023/05/17 02:22:42;;;;;;;0.03;0.00;;;16.60;84.40;;;;;;5037910;28;20490;-74
2023/05/17 02:25:08;;;;;;;0.00;0.00;;;16.50;84.50;;;;;;5037495;28;20021;-74
2023/05/17 02:27:34;;;;;;;0.00;0.00;;;16.60;83.90;;;;;;5045912;28;20061;-75
2023/05/17 02:30:00;;;;;;;0.00;0.00;;;16.40;85.60;;;;;;5043887;28;20494;-73
2023/05/17 02:32:27;;;;;;;0.00;0.00;;;16.40;85.20;;;;;;5040400;28;20029;-73
2023/05/17 02:34:53;;;;;;;0.08;0.00;;;16.50;84.40;;;;;;5037448;28;20041;-71
2023/05/17 02:37:19;;;;;;;0.00;0.00;;;16.50;84.20;;;;;;5040453;28;20087;-71
2023/05/17 02:39:45;;;;;;;0.00;0.00;;;16.40;84.80;;;;;;5040461;28;20045;-72
2023/05/17 02:42:10;;;;;;;0.00;0.00;;;16.40;84.40;;;;;;5041340;28;20045;-71
2023/05/17 02:44:36;;;;;;;2.05;0.10;;;16.40;84.60;;;;;;5037497;28;20112;-72
2023/05/17 02:47:02;;;;;;;0.52;0.10;;;16.30;85.80;;;;;;5040030;28;20090;-72
2023/05/17 02:49:27;;;;;;;0.30;0.22;;;16.30;85.20;;;;;;5044381;28;20056;-71
2023/05/17 02:51:53;;;;;;;0.00;0.00;;;16.40;85.00;;;;;;5034339;28;20044;-72
2023/05/17 02:54:19;;;;;;;0.00;0.00;;;16.40;85.20;;;;;;5035305;28;20036;-71
2023/05/17 02:56:45;;;;;;;0.00;0.00;;;16.30;85.50;;;;;;5042254;28;20044;-72
2023/05/17 02:59:10;;;;;;;0.00;0.00;;;16.30;85.30;;;;;;5041277;28;20026;-72
2023/05/17 03:01:36;;;;;;;0.13;0.00;;;16.30;84.80;;;;;;5045016;28;20029;-71
2023/05/17 03:04:01;;;;;;;0.03;0.00;;;16.30;85.80;;;;;;5039074;28;20056;-71
2023/05/17 03:06:27;;;;;;;0.00;0.00;;;16.40;84.50;;;;;;5033996;28;20392;-72
2023/05/17 03:08:52;;;;;;;0.00;0.00;;;16.30;85.00;;;;;;5029461;28;20396;-71
2023/05/17 03:11:18;;;;;;;0.15;0.10;;;16.30;85.00;;;;;;5034081;28;20041;-72
2023/05/17 03:13:45;;;;;;;0.05;0.00;;;16.30;85.60;;;;;;5031938;28;20084;-72
2023/05/17 03:16:11;;;;;;;0.00;0.00;;;16.30;84.80;;;;;;5037555;28;20052;-71
2023/05/17 03:18:36;;;;;;;0.00;0.00;;;16.30;84.80;;;;;;5035787;28;20064;-72
2023/05/17 03:21:02;;;;;;;0.73;0.10;;;16.20;85.50;;;;;;5032079;28;20109;-72
2023/05/17 03:23:28;;;;;;;2.72;0.10;;;16.10;86.30;;;;;;5042103;28;20048;-71
2023/05/17 03:25:53;;;;;;;0.10;0.00;;;16.30;84.80;;;;;;5030392;28;20374;-71
2023/05/17 03:28:19;;;;;;;0.00;0.00;;;16.40;83.80;;;;;;5037417;28;20515;-71
2023/05/17 03:30:45;;;;;;;1.23;0.10;;;16.30;84.80;;;;;;5035644;28;20136;-72
2023/05/17 03:33:11;;;;;;;0.20;0.00;;;16.30;84.50;;;;;;5032008;28;20128;-71
2023/05/17 03:35:36;;;;;;;0.00;0.00;;;16.40;83.90;;;;;;5037497;28;20063;-71
2023/05/17 03:38:02;;;;;;;0.10;0.00;;;16.50;83.20;;;;;;5036793;28;20999;-72
2023/05/17 03:40:27;;;;;;;1.00;0.20;;;16.40;84.00;;;;;;5033452;28;20392;-71
2023/05/17 03:42:53;;;;;;;0.00;0.00;;;16.30;84.70;;;;;;5031719;28;20037;-71
2023/05/17 03:45:19;;;;;;;0.20;0.00;;;16.30;83.30;;;;;;5042720;28;20029;-72
2023/05/17 03:47:44;;;;;;;0.00;0.00;;;16.30;84.10;;;;;;5040628;28;20031;-71
2023/05/17 03:50:10;;;;;;;0.00;0.00;;;16.40;83.40;;;;;;5027921;28;20030;-72
2023/05/17 03:52:36;;;;;;;0.10;0.03;;;16.30;84.40;;;;;;5036689;28;20104;-71
2023/05/17 03:55:01;;;;;;;0.00;0.00;;;16.30;83.70;;;;;;5032669;28;20025;-71
2023/05/17 03:57:27;;;;;;;0.08;0.00;;;16.20;84.10;;;;;;5035251;28;20037;-71
2023/05/17 03:59:53;;;;;;;0.28;0.00;;;16.20;83.40;;;;;;5033952;28;20103;-72
2023/05/17 04:02:19;;;;;;;0.00;0.00;;;16.20;84.50;;;;;;5035176;28;20449;-71
2023/05/17 04:04:49;;;;;;;0.00;0.00;;;16.20;83.60;;;;;;5030054;28;20082;-71
2023/05/17 04:07:14;;;;;;;0.20;0.00;;;16.40;83.00;;;;;;5025633;28;20103;-72
2023/05/17 04:09:40;;;;;;;1.20;0.10;;;16.40;83.60;;;;;;5031498;28;20388;-72
2023/05/17 04:12:06;;;;;;;0.85;0.00;;;16.30;84.20;;;;;;5039592;28;20029;-71
2023/05/17 04:14:31;;;;;;;0.40;0.00;;;16.30;83.30;;;;;;5029614;28;20500;-72
2023/05/17 04:16:58;;;;;;;0.10;0.10;;;16.30;83.60;;;;;;5028080;28;20029;-71
2023/05/17 04:19:23;;;;;;;0.00;0.00;;;16.20;84.00;;;;;;5026702;28;20108;-71
2023/05/17 04:21:50;;;;;;;0.00;0.00;;;16.20;84.00;;;;;;5027422;28;20578;-72
2023/05/17 04:24:16;;;;;;;0.00;0.00;;;16.30;83.50;;;;;;5033014;28;20029;-71
2023/05/17 04:26:43;;;;;;;0.00;0.00;;;16.20;84.70;;;;;;5027645;28;20025;-72
2023/05/17 04:29:08;;;;;;;0.00;0.00;;;16.30;82.30;;;;;;5026634;28;20026;-71
2023/05/17 04:31:34;;;;;;;0.00;0.00;;;16.40;82.50;;;;;;5031864;28;20033;-71
2023/05/17 04:34:00;;;;;;;0.00;0.00;;;16.50;82.90;;;;;;5034594;28;20025;-71
2023/05/17 04:36:25;;;;;;;0.00;0.00;;;16.30;83.30;;;;;;5024818;28;20167;-71
2023/05/17 04:38:51;;;;;;;1.25;0.00;;;16.30;83.60;;;;;;5031554;28;20132;-71
2023/05/17 04:41:16;;;;;;;0.43;0.10;;;16.20;84.00;;;;;;5034017;28;20028;-71
2023/05/17 04:43:42;;;;;;;0.00;0.00;;;16.30;84.10;;;;;;5031454;28;20051;-71
2023/05/17 04:46:08;;;;;;;0.00;0.00;;;16.20;83.40;;;;;;5031874;28;20017;-71
2023/05/17 04:48:34;;;;;;;0.28;0.00;;;16.10;84.90;;;;;;5034309;28;20040;-71
2023/05/17 04:51:03;;;;;;;1.42;0.00;;;16.10;84.00;;;;;;5027348;28;20716;-71
2023/05/17 04:53:29;;;;;;;0.00;0.00;;;16.10;84.00;;;;;;5031192;28;20037;-71
2023/05/17 04:55:56;;;;;;;0.10;0.00;;;16.10;84.50;;;;;;5029058;28;20029;-72
2023/05/17 04:58:23;;;;;;;0.00;0.00;;;16.10;84.20;;;;;;5027795;28;20112;-73
2023/05/17 05:00:49;;;;;;;0.00;0.00;;;16.10;85.10;;;;;;5028101;28;20044;-73
2023/05/17 05:03:14;;;;;;;0.73;0.00;;;16.10;84.00;;;;;;5032211;28;20119;-73
2023/05/17 05:05:40;;;;;;;0.55;0.00;;;16.10;83.40;;;;;;5031137;28;20155;-73
2023/05/17 05:08:07;;;;;;;0.00;0.00;;;16.30;82.90;;;;;;5037940;28;20033;-73
2023/05/17 05:10:33;;;;;;;0.20;0.00;;;16.30;82.90;;;;;;5030744;28;20033;-73
2023/05/17 05:12:58;;;;;;;0.05;0.05;;;16.20;83.30;;;;;;5038329;28;20033;-73
2023/05/17 05:15:24;;;;;;;0.00;0.00;;;16.30;83.50;;;;;;5027728;28;20037;-73
2023/05/17 05:17:49;;;;;;;0.20;0.00;;;16.30;82.40;;;;;;5024396;28;20029;-73
2023/05/17 05:20:15;;;;;;;1.75;0.17;;;16.20;82.80;;;;;;5024542;28;20029;-73
2023/05/17 05:22:41;;;;;;;0.00;0.00;;;16.30;83.70;;;;;;5032256;28;20033;-73
2023/05/17 05:25:07;;;;;;;0.00;0.00;;;16.30;83.40;;;;;;5025660;28;20025;-72
2023/05/17 05:27:34;;;;;;;0.88;0.00;;;16.20;83.10;;;;;;5030640;28;20061;-73
2023/05/17 05:30:00;;;;;;;0.38;0.03;;;16.30;83.20;;;;;;5025302;28;20044;-73
2023/05/17 05:32:26;;;;;;;0.13;0.00;;;16.30;82.60;;;;;;5028771;28;20033;-73
2023/05/17 05:34:52;;;;;;;0.03;0.00;;;16.40;83.00;;;;;;5031607;28;20198;-73
2023/05/17 05:37:18;;;;;;;0.00;0.00;;;16.30;82.80;;;;;;5022128;28;20087;-73
2023/05/17 05:39:47;;;;;;;0.25;0.00;;;16.30;82.60;;;;;;5023206;28;20132;-73
2023/05/17 05:42:12;;;;;;;0.00;0.00;;;16.30;83.40;;;;;;5031408;28;21427;-73
2023/05/17 05:44:38;;;;;;;0.00;0.00;;;16.30;82.20;;;;;;5031654;28;26153;-73
2023/05/17 05:47:04;;;;;;;0.20;0.00;;;16.30;83.10;;;;;;5034327;28;20047;-73
2023/05/17 05:49:30;;;;;;;0.43;0.10;;;16.40;82.10;;;;;;5026699;28;20400;-73
2023/05/17 05:51:55;;;;;;;1.75;0.10;;;16.40;82.90;;;;;;5030254;28;20044;-73
2023/05/17 05:54:21;;;;;;;0.47;0.20;;;16.40;82.00;;;;;;5028125;28;20029;-73
2023/05/17 05:56:46;;;;;;;1.55;0.10;;;16.30;83.50;;;;;;5033326;28;20034;-73
2023/05/17 05:59:12;;;;;;;0.30;0.00;;;16.40;81.80;;;;;;5030612;28;20021;-73
2023/05/17 06:01:38;;;;;;;0.10;0.00;;;16.50;81.50;;;;;;5030034;28;20079;-73
2023/05/17 06:04:04;;;;;;;0.10;0.00;;;16.50;82.90;;;;;;5035101;28;20029;-73
2023/05/17 06:06:30;;;;;;;0.63;0.10;;;16.40;82.70;;;;;;5034983;28;20116;-73
2023/05/17 06:08:55;;;;;;;0.10;0.00;;;16.50;82.10;;;;;;5035747;28;20022;-72
2023/05/17 06:11:22;;;;;;;0.10;0.00;;;16.50;81.80;;;;;;5034315;28;20080;-75
2023/05/17 06:13:48;;;;;;;0.30;0.00;;;16.50;82.80;;;;;;5030224;28;20033;-74
2023/05/17 06:16:14;;;;;;;0.10;0.00;;;16.40;81.20;;;;;;5033177;28;20029;-74
2023/05/17 06:18:40;;;;;;;0.03;0.00;;;16.50;81.90;;;;;;5030077;28;20036;-74
2023/05/17 06:21:05;;;;;;;0.00;0.00;;;16.60;81.20;;;;;;5027397;28;20108;-74
2023/05/17 06:23:31;;;;;;;0.30;0.08;;;16.50;82.60;;;;;;5032285;28;20533;-74
2023/05/17 06:25:57;;;;;;;2.55;0.10;;;16.60;81.40;;;;;;5032331;28;20051;-74
2023/05/17 06:28:22;;;;;;;0.20;0.08;;;16.60;81.20;;;;;;5033894;28;20021;-74
2023/05/17 06:30:48;;;;;;;0.00;0.00;;;16.60;81.70;;;;;;5026065;28;22772;-74
2023/05/17 06:33:13;;;;;;;0.15;0.00;;;16.60;81.90;;;;;;5038172;28;20072;-74
2023/05/17 06:35:39;;;;;;;0.10;0.00;;;16.50;83.90;;;;;;5028408;28;20026;-74
2023/05/17 06:38:05;;;;;;;0.25;0.00;;;16.60;82.10;;;;;;5033885;28;20017;-74
2023/05/17 06:40:30;;;;;;;0.15;0.00;;;16.70;80.30;;;;;;5030941;28;20069;-74
2023/05/17 06:42:56;;;;;;;0.10;0.00;;;16.70;80.80;;;;;;5034825;28;20033;-75
2023/05/17 06:45:22;;;;;;;1.73;0.03;;;16.70;80.90;;;;;;5038414;28;20031;-75
2023/05/17 06:47:47;;;;;;;0.00;0.00;;;16.70;81.40;;;;;;5030061;28;20037;-74
2023/05/17 06:50:13;;;;;;;0.32;0.00;;;16.70;80.40;;;;;;5029597;28;20067;-74
2023/05/17 06:52:39;;;;;;;0.20;0.20;;;16.70;82.40;;;;;;5037587;28;20396;-75
2023/05/17 06:55:06;;;;;;;0.15;0.03;;;16.70;83.00;;;;;;5041523;28;20024;-74
2023/05/17 06:57:32;;;;;;;1.02;0.10;;;16.70;82.10;;;;;;5033987;28;20082;-75
2023/05/17 06:59:57;;;;;;;0.85;0.10;;;16.70;82.20;;;;;;5031307;28;20033;-75
2023/05/17 07:02:23;;;;;;;0.55;0.10;;;16.70;83.00;;;;;;5047677;28;20041;-75
2023/05/17 07:04:49;;;;;;;0.45;0.20;;;16.70;83.00;;;;;;5032616;28;20029;-75
2023/05/17 07:07:14;;;;;;;0.20;0.10;;;16.70;82.00;;;;;;5033039;28;20036;-75
2023/05/17 07:09:40;;;;;;;0.45;0.10;;;16.70;82.70;;;;;;5036322;28;20033;-75
2023/05/17 07:12:06;;;;;;;0.15;0.00;;;16.80;81.40;;;;;;5037184;28;20029;-74
2023/05/17 07:14:32;;;;;;;1.40;0.20;;;16.90;81.90;;;;;;5038058;28;20060;-75
2023/05/17 07:16:58;;;;;;;0.00;0.00;;;16.70;83.70;;;;;;5027908;28;20495;-75
2023/05/17 07:19:25;;;;;;;0.57;0.10;;;16.80;81.10;;;;;;5041521;28;20450;-76
2023/05/17 07:21:51;;;;;;;1.25;0.22;;;16.90;80.40;;;;;;5030314;28;20033;-75
2023/05/17 07:24:16;;;;;;;0.08;0.00;;;16.90;82.00;;;;;;5028919;28;20050;-76
2023/05/17 07:26:42;;;;;;;0.90;0.10;;;16.90;81.00;;;;;;5032892;28;20024;-76
2023/05/17 07:29:08;;;;;;;0.85;0.20;;;16.90;82.50;;;;;;5031783;28;20025;-77
2023/05/17 07:31:33;;;;;;;0.75;0.00;;;16.90;81.40;;;;;;5031303;28;20445;-78
2023/05/17 07:33:59;;;;;;;1.10;0.10;;;16.90;82.30;;;;;;5036863;28;20029;-76
2023/05/17 07:36:29;;;;;;;0.47;0.10;;;17.00;83.40;;;;;;5030885;28;20472;-77
2023/05/17 07:38:55;;;;;;;0.28;0.10;;;17.00;82.30;;;;;;5034246;28;20045;-77
2023/05/17 07:41:22;;;;;;;0.40;0.10;;;16.90;81.90;;;;;;5031686;28;20040;-77
2023/05/17 07:43:48;;;;;;;1.25;0.00;;;16.90;85.10;;;;;;5029701;28;20033;-76
2023/05/17 07:46:13;;;;;;;0.08;0.05;;;16.90;81.70;;;;;;5026522;28;20430;-76
2023/05/17 07:48:39;;;;;;;0.10;0.00;;;17.00;80.00;;;;;;5029819;28;20030;-78
2023/05/17 07:51:04;;;;;;;0.40;0.10;;;17.00;81.20;;;;;;5031465;28;20079;-78
2023/05/17 07:53:30;;;;;;;0.55;0.13;;;17.00;81.90;;;;;;5038200;28;20522;-78
2023/05/17 07:55:56;;;;;;;0.10;0.00;;;17.10;80.20;;;;;;5035604;28;20470;-78
2023/05/17 07:58:22;;;;;;;0.10;0.00;;;17.10;81.10;;;;;;5034683;28;20021;-78
2023/05/17 08:00:48;;;;;;;1.95;0.10;;;17.10;81.20;;;;;;5031429;28;20060;-77
2023/05/17 08:03:14;;;;;;;0.10;0.10;;;17.10;82.20;;;;;;5032558;28;20028;-78
2023/05/17 08:05:39;;;;;;;0.43;0.10;;;17.10;83.40;;;;;;5033648;28;20025;-77
2023/05/17 08:08:05;;;;;;;0.45;0.10;;;17.10;82.70;;;;;;5028790;28;20033;-77
2023/05/17 08:10:32;;;;;;;0.57;0.10;;;17.10;85.10;;;;;;5030424;28;20064;-78
2023/05/17 08:12:57;;;;;;;0.35;0.10;;;17.10;83.40;;;;;;5031312;28;20099;-78
2023/05/17 08:15:23;;;;;;;0.52;0.10;;;17.20;87.50;;;;;;5032982;28;20411;-78
2023/05/17 08:17:49;;;;;;;0.25;0.08;;;17.30;85.80;;;;;;5026508;28;20029;-77
2023/05/17 08:20:14;;;;;;;0.00;0.00;;;17.40;86.60;;;;;;5031950;28;20053;-78
2023/05/17 08:22:40;;;;;;;0.52;0.10;;;17.60;82.10;;;;;;5031252;28;20027;-77
2023/05/17 08:25:06;;;;;;;0.00;0.00;;;17.70;82.80;;;;;;5029185;28;20034;-77
2023/05/17 08:27:32;;;;;;;0.60;0.20;;;18.00;83.20;;;;;;5034800;28;20017;-78
2023/05/17 08:29:58;;;;;;;1.23;0.20;;;18.20;83.00;;;;;;5035466;28;20029;-77
2023/05/17 08:32:24;;;;;;;0.20;0.10;;;18.30;84.30;;;;;;5031766;28;20483;-78
2023/05/17 08:34:51;;;;;;;0.10;0.10;;;18.40;84.40;;;;;;5037336;28;20021;-78
2023/05/17 08:37:19;;;;;;;0.50;0.10;;;18.50;83.20;;;;;;5033097;28;20021;-78
2023/05/17 08:39:45;;;;;;;0.20;0.00;;;18.60;81.90;;;;;;5028915;28;20039;-78
2023/05/17 08:42:12;;;;;;;0.28;0.08;;;18.50;83.20;;;;;;5027735;28;20033;-78
2023/05/17 08:44:38;;;;;;;1.13;0.20;;;18.60;82.60;;;;;;5032866;28;20479;-77
2023/05/17 08:47:05;;;;;;;0.00;0.00;;;18.60;82.30;;;;;;5037696;28;20025;-77
2023/05/17 08:49:33;;;;;;;0.13;0.10;;;18.50;80.80;;;;;;5030602;28;20060;-78
2023/05/17 08:52:00;;;;;;;0.90;0.10;;;18.60;85.90;;;;;;5043241;28;20062;-78
2023/05/17 08:54:26;;;;;;;0.10;0.10;;;18.60;81.00;;;;;;5027990;28;20044;-78
2023/05/17 08:56:59;;;;;;;0.47;0.10;;;18.60;81.00;;;;;;5037616;28;20541;-77
2023/05/17 08:59:26;;;;;;;0.22;0.03;;;18.60;80.30;;;;;;5034356;28;20118;-78
2023/05/17 09:01:55;;;;;;;0.22;0.13;;;18.70;81.90;;;;;;5028809;28;20475;-78
2023/05/17 09:04:23;;;;;;;0.47;0.10;;;18.90;81.20;;;;;;5031497;28;20029;-78
2023/05/17 09:06:49;;;;;;;2.55;0.20;;;19.00;81.30;;;;;;5034773;28;20040;-78
2023/05/17 09:09:15;;;;;;;0.38;0.10;;;19.30;80.60;;;;;;5028147;28;20025;-78
2023/05/17 09:11:41;;;;;;;2.38;0.10;;;19.40;80.60;;;;;;5032115;28;20049;-78
2023/05/17 09:14:07;;;;;;;0.10;0.10;;;19.30;79.40;;;;;;5034958;28;20468;-78
2023/05/17 09:16:34;;;;;;;0.05;0.03;;;19.30;79.30;;;;;;5035746;28;20464;-78
2023/05/17 09:19:01;;;;;;;1.20;0.08;;;19.40;79.50;;;;;;5034639;28;20479;-78
2023/05/17 09:21:29;;;;;;;2.50;0.10;;;19.40;82.20;;;;;;5037577;28;20025;-78
2023/05/17 09:23:58;;;;;;;7.22;0.38;;;19.40;80.20;;;;;;5037243;28;20095;-78
2023/05/17 09:26:24;;;;;;;0.52;0.20;;;19.60;82.70;;;;;;5033531;28;20029;-78
2023/05/17 09:28:52;;;;;;;0.00;0.00;;;19.40;82.00;;;;;;5032930;28;20060;-78
2023/05/17 09:31:18;;;;;;;0.95;0.20;;;19.30;79.80;;;;;;5030969;28;20082;-79
2023/05/17 09:33:49;;;;;;;0.52;0.17;;;19.60;84.10;;;;;;5039458;28;20490;-78
2023/05/17 09:36:16;;;;;;;0.00;0.00;;;19.60;82.00;;;;;;5036306;28;20119;-78
2023/05/17 09:38:41;;;;;;;0.68;0.25;;;19.60;84.10;;;;;;5031293;28;20091;-78
2023/05/17 09:41:07;;;;;;;0.47;0.10;;;19.70;84.10;;;;;;5033800;28;20033;-78
2023/05/17 09:43:33;;;;;;;1.65;0.28;;;20.00;85.90;;;;;;5035890;28;20107;-79
2023/05/17 09:45:58;;;;;;;2.25;0.35;;;19.80;80.80;;;;;;5028255;28;20104;-77
2023/05/17 09:48:27;;;;;;;2.10;0.80;;;19.70;83.50;;;;;;5038313;28;20028;-77
2023/05/17 09:50:53;;;;;;;0.35;0.30;;;19.80;84.20;;;;;;5029614;28;20040;-78
2023/05/17 09:53:27;;;;;;;0.85;0.20;;;19.90;83.60;;;;;;5030308;28;20460;-78
2023/05/17 09:55:55;;;;;;;3.10;0.30;;;19.70;83.00;;;;;;5034311;28;20059;-78
2023/05/17 09:58:21;;;;;;;1.65;0.15;;;19.80;83.30;;;;;;5033093;28;20025;-79
2023/05/17 10:00:55;;;;;;;0.40;0.25;;;19.80;82.70;;;;;;5036134;28;20031;-78
2023/05/17 10:03:21;;;;;;;0.57;0.20;;;19.60;81.30;;;;;;5024201;28;20135;-78
2023/05/17 10:05:53;;;;;;;0.25;0.10;;;19.60;84.10;;;;;;5032983;28;20183;-78
2023/05/17 10:08:22;;;;;;;0.32;0.10;;;19.60;82.10;;;;;;5031053;28;20091;-78
2023/05/17 10:10:49;;;;;;;0.28;0.20;;;19.50;79.90;;;;;;5047083;28;20047;-79
2023/05/17 10:13:20;;;;;;;0.22;0.17;;;19.60;80.90;;;;;;5034866;28;20461;-79
2023/05/17 10:15:47;;;;;;;0.63;0.10;;;19.80;79.70;;;;;;5033171;28;20037;-79
2023/05/17 10:18:14;;;;;;;1.23;0.30;;;19.80;80.40;;;;;;5028188;28;20480;-78
2023/05/17 10:20:40;;;;;;;0.45;0.20;;;19.60;81.10;;;;;;5036391;28;20431;-78
2023/05/17 10:23:07;;;;;;;0.47;0.10;;;19.50;80.70;;;;;;5033128;28;20047;-78
2023/05/17 10:25:33;;;;;;;0.82;0.10;;;19.50;80.10;;;;;;5039570;28;20052;-78
2023/05/17 10:28:00;;;;;;;1.75;0.10;;;19.30;78.60;;;;;;5029992;28;20053;-79
2023/05/17 10:30:28;;;;;;;0.30;0.17;;;19.30;79.40;;;;;;5034749;28;20154;-78
2023/05/17 10:32:54;;;;;;;0.47;0.30;;;19.40;79.70;;;;;;5034335;28;20071;-79
2023/05/17 10:35:20;;;;;;;0.63;0.28;;;19.70;82.00;;;;;;5042626;28;20060;-79
2023/05/17 10:37:46;;;;;;;0.43;0.10;;;19.60;79.20;;;;;;5034742;28;20126;-78
2023/05/17 10:40:12;;;;;;;1.52;0.30;;;19.80;81.10;;;;;;5044020;28;20831;-78
2023/05/17 10:42:53;;;;;;;2.20;0.20;;;19.70;79.70;;;;;;5030466;28;20025;-78
2023/05/17 10:45:21;;;;;;;0.20;0.00;;;19.70;80.20;;;;;;5040704;28;20033;-78
2023/05/17 10:47:49;;;;;;;0.38;0.10;;;19.70;79.30;;;;;;5034369;28;20119;-79
2023/05/17 10:50:21;;;;;;;0.98;0.25;;;19.70;79.60;;;;;;5033354;28;20033;-79
2023/05/17 10:52:48;;;;;;;2.33;0.28;;;19.90;81.80;;;;;;5044344;28;20060;-78
2023/05/17 10:55:36;;;;;;;2.30;0.40;;;20.00;79.10;;;;;;5043996;28;20032;-78
2023/05/17 10:58:19;;;;;;;0.25;0.10;;;20.10;80.70;;;;;;5040263;28;20113;-78
2023/05/17 11:00:49;;;;;;;0.32;0.20;;;20.10;79.40;;;;;;5033170;28;20041;-78
2023/05/17 11:03:20;;;;;;;0.30;0.10;;;20.30;80.10;;;;;;5040758;28;20103;-79
2023/05/17 11:06:20;;;;;;;0.22;0.17;;;20.30;80.70;;;;;;5038628;28;20439;-78
2023/05/17 11:09:17;;;;;;;1.80;0.20;;;20.50;78.20;;;;;;5003206;28;20559;-78
2023/05/17 11:12:05;;;;;;;0.85;0.40;;;20.70;80.70;;;;;;5029583;28;20029;-79
2023/05/17 11:15:09;;;;;;;0.38;0.10;;;20.80;80.80;;;;;;5038171;28;20029;-78
2023/05/17 11:17:45;;;;;;;0.40;0.20;;;20.60;78.50;;;;;;5027277;28;20040;-79
2023/05/17 11:20:14;;;;;;;0.77;0.20;;;20.90;81.40;;;;;;5032960;28;20041;-78
2023/05/17 11:23:06;;;;;;;0.30;0.28;;;21.00;80.50;;;;;;5032794;28;20033;-79
2023/05/17 11:25:39;;;;;;;0.10;0.00;;;20.90;79.30;;;;;;5037759;28;20375;-78
2023/05/17 11:28:07;;;;;;;0.60;0.40;;;21.20;80.10;;;;;;5029538;28;20039;-78
2023/05/17 11:30:33;;;;;;;0.82;0.30;;;21.20;78.50;;;;;;5034607;28;20048;-78
2023/05/17 11:33:03;;;;;;;0.43;0.25;;;21.20;79.10;;;;;;5033669;28;20059;-76
2023/05/17 11:35:35;;;;;;;1.95;0.20;;;21.00;79.40;;;;;;5031584;28;20115;-75
2023/05/17 11:38:21;;;;;;;0.32;0.10;;;21.00;79.30;;;;;;5034749;28;20052;-76
2023/05/17 11:40:49;;;;;;;0.70;0.22;;;20.80;77.60;;;;;;5037453;28;20057;-78
2023/05/17 11:43:17;;;;;;;0.98;0.17;;;20.80;78.30;;;;;;5035304;28;20464;-77
2023/05/17 11:45:46;;;;;;;0.73;0.40;;;20.60;78.30;;;;;;5031032;28;20067;-78
2023/05/17 11:48:13;;;;;;;0.38;0.30;;;20.70;78.20;;;;;;5033060;28;20029;-78
2023/05/17 11:50:42;;;;;;;0.20;0.10;;;20.90;78.50;;;;;;5034700;28;20037;-78
2023/05/17 11:53:08;;;;;;;1.08;0.10;;;21.00;77.00;;;;;;5031221;28;20460;-78
2023/05/17 11:55:39;;;;;;;1.90;0.13;;;20.90;77.10;;;;;;5033553;28;20029;-78
2023/05/17 11:58:07;;;;;;;2.25;0.28;;;21.10;78.50;;;;;;5036765;28;20428;-77
2023/05/17 12:00:33;;;;;;;0.20;0.05;;;21.10;77.10;;;;;;5027550;28;20025;-78
2023/05/17 12:03:14;;;;;;;0.13;0.05;;;21.10;77.90;;;;;;5028932;28;20030;-78
2023/05/17 12:05:40;;;;;;;0.30;0.15;;;21.10;77.30;;;;;;5035348;28;20024;-78
2023/05/17 12:08:05;;;;;;;0.20;0.10;;;21.10;77.40;;;;;;5031275;28;20036;-78
2023/05/17 12:10:32;;;;;;;3.83;0.20;;;21.00;76.80;;;;;;5028364;28;20026;-77
2023/05/17 12:12:57;;;;;;;0.45;0.10;;;21.20;76.40;;;;;;5029125;28;20087;-76
2023/05/17 12:15:23;;;;;;;0.80;0.15;;;21.30;76.30;;;;;;5036706;28;20538;-77
2023/05/17 12:17:51;;;;;;;1.85;0.10;;;21.10;76.60;;;;;;5035611;28;20040;-77
2023/05/17 12:20:17;;;;;;;1.92;0.65;;;21.10;77.90;;;;;;5035125;28;21224;-77
2023/05/17 12:22:55;;;;;;;3.83;0.63;;;21.30;78.40;;;;;;5033833;28;20021;-77
2023/05/17 12:25:24;;;;;;;1.08;0.17;;;21.50;76.60;;;;;;5035968;28;20039;-77
2023/05/17 12:28:14;;;;;;;0.55;0.00;;;21.40;77.90;;;;;;5030904;28;20109;-76
2023/05/17 12:30:40;;;;;;;0.15;0.05;;;21.20;76.40;;;;;;5028156;28;20124;-76
2023/05/17 12:33:06;;;;;;;1.00;0.30;;;21.40;76.90;;;;;;5032734;28;20027;-76
2023/05/17 12:35:32;;;;;;;0.35;0.00;;;21.60;78.60;;;;;;5036130;28;20399;-77
2023/05/17 12:37:58;;;;;;;0.93;0.10;;;21.40;77.70;;;;;;5029882;28;20041;-76
2023/05/17 12:40:23;;;;;;;0.98;0.38;;;21.40;78.00;;;;;;5030910;28;20053;-76
2023/05/17 12:42:49;;;;;;;1.13;0.20;;;21.50;78.40;;;;;;5027278;28;20037;-77
2023/05/17 12:45:15;;;;;;;0.77;0.30;;;21.60;78.70;;;;;;5024721;28;20752;-78
2023/05/17 12:47:42;;;;;;;2.47;0.40;;;21.40;77.20;;;;;;5025953;28;20180;-77
2023/05/17 12:50:08;;;;;;;0.75;0.17;;;21.50;77.70;;;;;;5028806;28;20037;-76